Terminal Aerodrome Forecast
Issued by NWS

Home | Current Version | Previous Version | Text Only | Print | Product List | Glossary On
Versions: 1 2 3 4 5 6 7 8 9 10 11 12 13 14 15 16 17 18 19 20
000
FTUS46 KOTX 200537
TAFPUW
TAF
KPUW 200537Z 2006/2106 24013KT P6SM VCSH FEW045 FEW080
     FM201100 23010KT P6SM -SHRA BKN050 BKN080
     FM201400 22008KT P6SM SCT050 BKN080
     FM201900 24008KT P6SM -SHRA BKN035 OVC050
     FM210400 22006KT P6SM SCT020 BKN060=

USA.gov is the U.S. government's official web portal to all federal, state and local government web resources and services.